CEB2892 YMML-RPLL
Flight info
| Callsign | CEB2892 |
|---|---|
| Flight time | N/A |
| Altitude | 30000 |
| Route | KEPPA NATYA BHI TNK TN DN AMN COT IOO IBAGO |
| Aircraft | A320/M-V/N |
Departure
| Time | 2026-05-05 08:23 |
|---|---|
| Airport | Melbourne Airport (YMML) |
Arrival
| Time | N/A |
|---|---|
| Airport | Ninoy Aquino International Airport (RPLL) |
| Time | Latitude | Longitude | Altitude | Speed | Heading |
|---|---|---|---|---|---|
| 2026-05-05 08:02 | -37.66570 | 144.84485 | 442 ft | 0 kts | 352° |
| 2026-05-05 08:11 | -37.66578 | 144.84486 | 442 ft | 3 kts | 352° |
| 2026-05-05 08:11 | -37.66604 | 144.84491 | 442 ft | 3 kts | 352° |
| 2026-05-05 08:11 | -37.66630 | 144.84495 | 442 ft | 3 kts | 352° |
| 2026-05-05 08:11 | -37.66657 | 144.84500 | 442 ft | 3 kts | 352° |
| 2026-05-05 08:12 | -37.66681 | 144.84497 | 442 ft | 3 kts | 33° |
| 2026-05-05 08:12 | -37.66693 | 144.84471 | 442 ft | 2 kts | 84° |
| 2026-05-05 08:12 | -37.66693 | 144.84470 | 442 ft | 0 kts | 85° |
| 2026-05-05 08:14 | -37.66692 | 144.84474 | 442 ft | 1 kts | 79° |
| 2026-05-05 08:14 | -37.66689 | 144.84486 | 441 ft | 1 kts | 66° |
| 2026-05-05 08:15 | -37.66682 | 144.84505 | 442 ft | 2 kts | 63° |
| 2026-05-05 08:15 | -37.66671 | 144.84528 | 442 ft | 3 kts | 61° |
| 2026-05-05 08:15 | -37.66660 | 144.84560 | 442 ft | 4 kts | 73° |
| 2026-05-05 08:15 | -37.66653 | 144.84601 | 442 ft | 5 kts | 78° |
| 2026-05-05 08:16 | -37.66645 | 144.84650 | 442 ft | 6 kts | 80° |
| 2026-05-05 08:16 | -37.66640 | 144.84706 | 441 ft | 6 kts | 83° |
| 2026-05-05 08:16 | -37.66625 | 144.84764 | 442 ft | 7 kts | 57° |
| 2026-05-05 08:16 | -37.66583 | 144.84804 | 441 ft | 8 kts | 13° |
| 2026-05-05 08:17 | -37.66524 | 144.84798 | 442 ft | 8 kts | 352° |
| 2026-05-05 08:17 | -37.66518 | 144.84796 | 442 ft | 0 kts | 352° |
| 2026-05-05 08:17 | -37.66516 | 144.84796 | 441 ft | 0 kts | 349° |
| 2026-05-05 08:17 | -37.66495 | 144.84790 | 442 ft | 0 kts | 346° |
| 2026-05-05 08:18 | -37.66472 | 144.84786 | 442 ft | 5 kts | 351° |
| 2026-05-05 08:18 | -37.66417 | 144.84779 | 442 ft | 10 kts | 359° |
| 2026-05-05 08:18 | -37.66334 | 144.84786 | 442 ft | 13 kts | 4° |
| 2026-05-05 08:19 | -37.66260 | 144.84763 | 442 ft | 0 kts | 334° |
| 2026-05-05 08:19 | -37.66259 | 144.84763 | 442 ft | 0 kts | 334° |
| 2026-05-05 08:19 | -37.66251 | 144.84757 | 442 ft | 1 kts | 328° |
| 2026-05-05 08:19 | -37.66241 | 144.84746 | 442 ft | 2 kts | 314° |
| 2026-05-05 08:20 | -37.66228 | 144.84721 | 442 ft | 5 kts | 298° |
| 2026-05-05 08:20 | -37.66218 | 144.84676 | 442 ft | 0 kts | 278° |
| 2026-05-05 08:20 | -37.66218 | 144.84674 | 442 ft | 1 kts | 277° |
| 2026-05-05 08:21 | -37.66217 | 144.84668 | 442 ft | 0 kts | 275° |
| 2026-05-05 08:22 | -37.66215 | 144.84644 | 442 ft | 21 kts | 274° |
| 2026-05-05 08:22 | -37.66183 | 144.84109 | 442 ft | 96 kts | 273° |
| 2026-05-05 08:22 | -37.66119 | 144.82991 | 442 ft | 157 kts | 274° |
| 2026-05-05 08:23 | -37.66035 | 144.81447 | 632 ft | 189 kts | 274° |
| 2026-05-05 08:23 | -37.65935 | 144.79770 | 1248 ft | 191 kts | 274° |
| 2026-05-05 08:23 | -37.65831 | 144.78149 | 2127 ft | 180 kts | 274° |
| 2026-05-05 08:23 | -37.65733 | 144.76592 | 2742 ft | 179 kts | 274° |
| 2026-05-05 08:24 | -37.65637 | 144.75014 | 3300 ft | 180 kts | 274° |
| 2026-05-05 08:24 | -37.65541 | 144.73416 | 3861 ft | 182 kts | 274° |
| 2026-05-05 08:24 | -37.65447 | 144.71819 | 4419 ft | 183 kts | 274° |
| 2026-05-05 08:24 | -37.65353 | 144.70227 | 4972 ft | 185 kts | 274° |
| 2026-05-05 08:25 | -37.65255 | 144.68579 | 5541 ft | 187 kts | 274° |
| 2026-05-05 08:25 | -37.65156 | 144.66940 | 6103 ft | 188 kts | 276° |
| 2026-05-05 08:25 | -37.64722 | 144.65387 | 6637 ft | 191 kts | 308° |
| 2026-05-05 08:25 | -37.63719 | 144.64308 | 7198 ft | 191 kts | 326° |
| 2026-05-05 08:26 | -37.62596 | 144.63420 | 7760 ft | 193 kts | 328° |
| 2026-05-05 08:26 | -37.61448 | 144.62540 | 8320 ft | 194 kts | 328° |
| 2026-05-05 08:26 | -37.60296 | 144.61646 | 8876 ft | 196 kts | 328° |
| 2026-05-05 08:26 | -37.59148 | 144.60742 | 9422 ft | 198 kts | 328° |
| 2026-05-05 08:27 | -37.57980 | 144.59817 | 9966 ft | 199 kts | 327° |
| 2026-05-05 08:27 | -37.56809 | 144.58882 | 10502 ft | 201 kts | 327° |
| 2026-05-05 08:27 | -37.55637 | 144.57945 | 11025 ft | 202 kts | 327° |
| 2026-05-05 08:27 | -37.54458 | 144.57001 | 11542 ft | 204 kts | 327° |
| 2026-05-05 08:28 | -37.53252 | 144.56033 | 12063 ft | 205 kts | 327° |
| 2026-05-05 08:28 | -37.52056 | 144.55074 | 12572 ft | 207 kts | 327° |
| 2026-05-05 08:28 | -37.50832 | 144.54091 | 13085 ft | 209 kts | 327° |
| 2026-05-05 08:28 | -37.49614 | 144.53114 | 13588 ft | 210 kts | 327° |
| 2026-05-05 08:29 | -37.48377 | 144.52122 | 14089 ft | 212 kts | 327° |
| 2026-05-05 08:29 | -37.47120 | 144.51114 | 14591 ft | 213 kts | 327° |
| 2026-05-05 08:29 | -37.45865 | 144.50108 | 15084 ft | 215 kts | 327° |
| 2026-05-05 08:30 | -37.43339 | 144.48084 | 16049 ft | 218 kts | 327° |
| 2026-05-05 08:30 | -37.42044 | 144.47047 | 16530 ft | 219 kts | 327° |
| 2026-05-05 08:30 | -37.40745 | 144.46007 | 17004 ft | 221 kts | 327° |
| 2026-05-05 08:30 | -37.39436 | 144.44960 | 17473 ft | 222 kts | 327° |
| 2026-05-05 08:31 | -37.38105 | 144.43895 | 17940 ft | 224 kts | 327° |
| 2026-05-05 08:31 | -37.36798 | 144.42851 | 18390 ft | 225 kts | 327° |
| 2026-05-05 08:31 | -37.35463 | 144.41785 | 18841 ft | 227 kts | 327° |
| 2026-05-05 08:31 | -37.34146 | 144.40732 | 19277 ft | 228 kts | 327° |
| 2026-05-05 08:32 | -37.32806 | 144.39662 | 19716 ft | 230 kts | 327° |
| 2026-05-05 08:32 | -37.31455 | 144.38583 | 20152 ft | 231 kts | 327° |
| 2026-05-05 08:32 | -37.30100 | 144.37503 | 20582 ft | 232 kts | 327° |
| 2026-05-05 08:32 | -37.28724 | 144.36406 | 21011 ft | 234 kts | 327° |
| 2026-05-05 08:33 | -37.27347 | 144.35309 | 21432 ft | 235 kts | 327° |
| 2026-05-05 08:33 | -37.25954 | 144.34193 | 21851 ft | 237 kts | 328° |
| 2026-05-05 08:33 | -37.24564 | 144.33073 | 22261 ft | 238 kts | 328° |
| 2026-05-05 08:33 | -37.23154 | 144.31940 | 22561 ft | 247 kts | 328° |
| 2026-05-05 08:34 | -37.21662 | 144.30747 | 22805 ft | 259 kts | 328° |
| 2026-05-05 08:34 | -37.20108 | 144.29507 | 23052 ft | 271 kts | 328° |
| 2026-05-05 08:34 | -37.18483 | 144.28215 | 23300 ft | 284 kts | 328° |
| 2026-05-05 08:34 | -37.16777 | 144.26860 | 23554 ft | 296 kts | 328° |
| 2026-05-05 08:35 | -37.15004 | 144.25453 | 23935 ft | 304 kts | 328° |
| 2026-05-05 08:35 | -37.13214 | 144.24034 | 24439 ft | 306 kts | 328° |
| 2026-05-05 08:35 | -37.11411 | 144.22606 | 24955 ft | 308 kts | 328° |
| 2026-05-05 08:35 | -37.09621 | 144.21188 | 25487 ft | 309 kts | 328° |
| 2026-05-05 08:36 | -37.07780 | 144.19730 | 25980 ft | 311 kts | 328° |
| 2026-05-05 08:36 | -37.05954 | 144.18285 | 26402 ft | 315 kts | 328° |
| 2026-05-05 08:36 | -37.04097 | 144.16814 | 26812 ft | 319 kts | 328° |
| 2026-05-05 08:36 | -37.02214 | 144.15326 | 27220 ft | 323 kts | 328° |
| 2026-05-05 08:37 | -37.00278 | 144.13796 | 27625 ft | 326 kts | 328° |
| 2026-05-05 08:37 | -36.98340 | 144.12264 | 28008 ft | 330 kts | 328° |
| 2026-05-05 08:37 | -36.96344 | 144.10687 | 28380 ft | 334 kts | 328° |
| 2026-05-05 08:37 | -36.94368 | 144.09128 | 28738 ft | 338 kts | 328° |
| 2026-05-05 08:38 | -36.92352 | 144.07538 | 29111 ft | 340 kts | 328° |
| 2026-05-05 08:38 | -36.90349 | 144.05959 | 29483 ft | 343 kts | 328° |
| 2026-05-05 08:38 | -36.88296 | 144.04346 | 29848 ft | 345 kts | 328° |
| 2026-05-05 08:38 | -36.86265 | 144.02757 | 30192 ft | 347 kts | 328° |
| 2026-05-05 08:39 | -36.84219 | 144.01155 | 30524 ft | 349 kts | 328° |
| 2026-05-05 08:39 | -36.82134 | 143.99535 | 30849 ft | 351 kts | 329° |
| 2026-05-05 08:39 | -36.79967 | 143.98064 | 31161 ft | 353 kts | 334° |
| 2026-05-05 08:39 | -36.77715 | 143.96819 | 31466 ft | 355 kts | 339° |
| 2026-05-05 08:40 | -36.75400 | 143.95789 | 31764 ft | 357 kts | 341° |
| 2026-05-05 08:40 | -36.73040 | 143.94809 | 32059 ft | 359 kts | 341° |
| 2026-05-05 08:40 | -36.70670 | 143.93832 | 32344 ft | 361 kts | 341° |
| 2026-05-05 08:40 | -36.68277 | 143.92845 | 32491 ft | 362 kts | 341° |
| 2026-05-05 08:41 | -36.65868 | 143.91849 | 32108 ft | 369 kts | 341° |
| 2026-05-05 08:41 | -36.63363 | 143.90813 | 31256 ft | 381 kts | 341° |
| 2026-05-05 08:41 | -36.60821 | 143.89760 | 30207 ft | 396 kts | 341° |
| 2026-05-05 08:41 | -36.58146 | 143.88654 | 29059 ft | 412 kts | 341° |
| 2026-05-05 08:42 | -36.55383 | 143.87512 | 27937 ft | 426 kts | 341° |
| 2026-05-05 08:42 | -36.52557 | 143.86346 | 27155 ft | 436 kts | 341° |
| 2026-05-05 08:42 | -36.49635 | 143.85141 | 26839 ft | 447 kts | 341° |
| 2026-05-05 08:42 | -36.46643 | 143.83908 | 26992 ft | 455 kts | 341° |
| 2026-05-05 08:43 | -36.43600 | 143.82655 | 27334 ft | 459 kts | 341° |
| 2026-05-05 08:43 | -36.40581 | 143.81412 | 27812 ft | 458 kts | 341° |
| 2026-05-05 08:43 | -36.37595 | 143.80182 | 28492 ft | 452 kts | 341° |
| 2026-05-05 08:43 | -36.34656 | 143.78972 | 29215 ft | 444 kts | 341° |
| 2026-05-05 08:44 | -36.31737 | 143.77771 | 29650 ft | 443 kts | 341° |
| 2026-05-05 08:44 | -36.28785 | 143.76556 | 29808 ft | 449 kts | 341° |
| 2026-05-05 08:44 | -36.25822 | 143.75339 | 29811 ft | 452 kts | 341° |
| 2026-05-05 08:45 | -36.19756 | 143.72850 | 29713 ft | 464 kts | 341° |
| 2026-05-05 08:45 | -36.13542 | 143.70306 | 29774 ft | 474 kts | 341° |
| 2026-05-05 08:46 | -36.07314 | 143.67761 | 29810 ft | 476 kts | 341° |
| 2026-05-05 08:46 | -36.00954 | 143.65166 | 29817 ft | 476 kts | 341° |
| 2026-05-05 08:47 | -35.94635 | 143.62590 | 29819 ft | 476 kts | 341° |
| 2026-05-05 08:47 | -35.88309 | 143.60016 | 29819 ft | 476 kts | 341° |
| 2026-05-05 08:48 | -35.82018 | 143.57474 | 29819 ft | 476 kts | 341° |
| 2026-05-05 08:48 | -35.75693 | 143.54915 | 29819 ft | 476 kts | 341° |
| 2026-05-05 08:49 | -35.69349 | 143.52348 | 29819 ft | 476 kts | 341° |
| 2026-05-05 08:49 | -35.63034 | 143.49795 | 29819 ft | 476 kts | 341° |
| 2026-05-05 08:50 | -35.56750 | 143.47260 | 30002 ft | 478 kts | 341° |
| 2026-05-05 08:50 | -35.53595 | 143.45987 | 30339 ft | 476 kts | 341° |
| 2026-05-05 08:50 | -35.50445 | 143.44717 | 30664 ft | 474 kts | 341° |
| 2026-05-05 08:50 | -35.47301 | 143.43453 | 30939 ft | 473 kts | 341° |
| 2026-05-05 08:51 | -35.44183 | 143.42197 | 31185 ft | 472 kts | 341° |
| 2026-05-05 08:51 | -35.41079 | 143.40950 | 31425 ft | 472 kts | 341° |
| 2026-05-05 08:51 | -35.37947 | 143.39691 | 31669 ft | 471 kts | 341° |
| 2026-05-05 08:51 | -35.34811 | 143.38432 | 31913 ft | 471 kts | 341° |
| 2026-05-05 08:52 | -35.31698 | 143.37183 | 32152 ft | 470 kts | 341° |
| 2026-05-05 08:52 | -35.28592 | 143.35938 | 32386 ft | 469 kts | 341° |
| 2026-05-05 08:52 | -35.25529 | 143.34709 | 32614 ft | 469 kts | 342° |
| 2026-05-05 08:52 | -35.22425 | 143.33453 | 32840 ft | 468 kts | 342° |
| 2026-05-05 08:53 | -35.19315 | 143.32193 | 33064 ft | 468 kts | 342° |
| 2026-05-05 08:53 | -35.16240 | 143.30954 | 33281 ft | 467 kts | 342° |
| 2026-05-05 08:53 | -35.13159 | 143.29717 | 33496 ft | 466 kts | 342° |
| 2026-05-05 08:53 | -35.10074 | 143.28482 | 33707 ft | 466 kts | 342° |
| 2026-05-05 08:54 | -35.06947 | 143.27234 | 33916 ft | 465 kts | 342° |
| 2026-05-05 08:54 | -35.03867 | 143.26007 | 34118 ft | 465 kts | 342° |
| 2026-05-05 08:54 | -35.00809 | 143.24788 | 34314 ft | 464 kts | 341° |
| 2026-05-05 08:54 | -34.97731 | 143.23431 | 34506 ft | 464 kts | 339° |
| 2026-05-05 08:55 | -34.94772 | 143.21902 | 34692 ft | 463 kts | 335° |
| 2026-05-05 08:55 | -34.91891 | 143.20195 | 34875 ft | 463 kts | 333° |
| 2026-05-05 08:55 | -34.89032 | 143.18443 | 35061 ft | 462 kts | 333° |
| 2026-05-05 08:55 | -34.86121 | 143.16664 | 35243 ft | 462 kts | 333° |
| 2026-05-05 08:56 | -34.83267 | 143.14923 | 35415 ft | 461 kts | 333° |
| 2026-05-05 08:56 | -34.80413 | 143.13182 | 35582 ft | 461 kts | 333° |
| 2026-05-05 08:56 | -34.77542 | 143.11432 | 35741 ft | 461 kts | 333° |
| 2026-05-05 08:56 | -34.74665 | 143.09677 | 35900 ft | 460 kts | 333° |
| 2026-05-05 08:57 | -34.71810 | 143.07936 | 36055 ft | 460 kts | 333° |
| 2026-05-05 08:57 | -34.68945 | 143.06190 | 36205 ft | 459 kts | 333° |
| 2026-05-05 08:57 | -34.66098 | 143.04457 | 36344 ft | 459 kts | 333° |
| 2026-05-05 08:57 | -34.63230 | 143.02712 | 36475 ft | 459 kts | 333° |
| 2026-05-05 08:58 | -34.60394 | 143.00986 | 36598 ft | 459 kts | 333° |
| 2026-05-05 08:58 | -34.57532 | 142.99248 | 36717 ft | 459 kts | 333° |
| 2026-05-05 08:58 | -34.54671 | 142.97510 | 36833 ft | 459 kts | 333° |
| 2026-05-05 08:58 | -34.51844 | 142.95795 | 36944 ft | 459 kts | 333° |
| 2026-05-05 08:59 | -34.49000 | 142.94070 | 37053 ft | 459 kts | 333° |
| 2026-05-05 08:59 | -34.46128 | 142.92329 | 37161 ft | 459 kts | 333° |
| 2026-05-05 08:59 | -34.43295 | 142.90616 | 37262 ft | 459 kts | 333° |
| 2026-05-05 08:59 | -34.40431 | 142.88882 | 37363 ft | 459 kts | 333° |
| 2026-05-05 09:00 | -34.37552 | 142.87143 | 37464 ft | 459 kts | 333° |
| 2026-05-05 09:00 | -34.31857 | 142.83704 | 37655 ft | 459 kts | 333° |
| 2026-05-05 09:01 | -34.26147 | 142.80263 | 37809 ft | 459 kts | 333° |
| 2026-05-05 09:01 | -34.20407 | 142.76807 | 37817 ft | 459 kts | 333° |
| 2026-05-05 09:02 | -34.14695 | 142.73375 | 37819 ft | 459 kts | 333° |
| 2026-05-05 09:02 | -34.08971 | 142.69940 | 37820 ft | 459 kts | 333° |
| 2026-05-05 09:03 | -34.03258 | 142.66516 | 37820 ft | 459 kts | 333° |
| 2026-05-05 09:03 | -33.97558 | 142.63106 | 37820 ft | 459 kts | 333° |
| 2026-05-05 09:04 | -33.91828 | 142.59683 | 37820 ft | 459 kts | 333° |
| 2026-05-05 09:04 | -33.86085 | 142.56267 | 37820 ft | 459 kts | 333° |
| 2026-05-05 09:05 | -33.80383 | 142.52887 | 37820 ft | 459 kts | 333° |
| 2026-05-05 09:05 | -33.74630 | 142.49474 | 37820 ft | 459 kts | 333° |
| 2026-05-05 09:06 | -33.68885 | 142.46065 | 37820 ft | 459 kts | 333° |
| 2026-05-05 09:06 | -33.63151 | 142.42665 | 37820 ft | 459 kts | 333° |
| 2026-05-05 09:07 | -33.57419 | 142.39273 | 37820 ft | 459 kts | 333° |
| 2026-05-05 09:07 | -33.51759 | 142.35927 | 37820 ft | 459 kts | 333° |
| 2026-05-05 09:08 | -33.45958 | 142.32486 | 37820 ft | 459 kts | 334° |
| 2026-05-05 09:08 | -33.40214 | 142.29074 | 37820 ft | 459 kts | 334° |
| 2026-05-05 09:09 | -33.34491 | 142.25696 | 37820 ft | 459 kts | 334° |
| 2026-05-05 09:09 | -33.28749 | 142.22317 | 37820 ft | 459 kts | 334° |
| 2026-05-05 09:10 | -33.22982 | 142.18933 | 37820 ft | 459 kts | 334° |
| 2026-05-05 09:10 | -33.17252 | 142.15576 | 37820 ft | 459 kts | 334° |
| 2026-05-05 09:11 | -33.11505 | 142.12213 | 37820 ft | 459 kts | 334° |
| 2026-05-05 09:11 | -33.05776 | 142.08865 | 37820 ft | 459 kts | 334° |
| 2026-05-05 09:12 | -33.00066 | 142.05536 | 37820 ft | 459 kts | 334° |
| 2026-05-05 09:12 | -32.94338 | 142.02199 | 37820 ft | 459 kts | 334° |
| 2026-05-05 09:13 | -32.88603 | 141.98863 | 37820 ft | 459 kts | 334° |
| 2026-05-05 09:13 | -32.82904 | 141.95570 | 37820 ft | 459 kts | 334° |
| 2026-05-05 09:14 | -32.77105 | 141.92217 | 37820 ft | 459 kts | 334° |
| 2026-05-05 09:14 | -32.71317 | 141.88869 | 37820 ft | 459 kts | 334° |
| 2026-05-05 09:15 | -32.65530 | 141.85522 | 37820 ft | 459 kts | 334° |
| 2026-05-05 09:15 | -32.59784 | 141.82204 | 37820 ft | 459 kts | 334° |
| 2026-05-05 09:16 | -32.54002 | 141.78868 | 37820 ft | 459 kts | 334° |
| 2026-05-05 09:16 | -32.48237 | 141.75548 | 37820 ft | 459 kts | 334° |
| 2026-05-05 09:17 | -32.42409 | 141.72197 | 37820 ft | 459 kts | 334° |
| 2026-05-05 09:17 | -32.36645 | 141.68886 | 37820 ft | 459 kts | 334° |
| 2026-05-05 09:18 | -32.30857 | 141.65565 | 37820 ft | 459 kts | 334° |
| 2026-05-05 09:18 | -32.25101 | 141.62267 | 37820 ft | 459 kts | 334° |
| 2026-05-05 09:19 | -32.19344 | 141.58972 | 37820 ft | 459 kts | 334° |
| 2026-05-05 09:19 | -32.13631 | 141.55704 | 37820 ft | 459 kts | 334° |
| 2026-05-05 09:20 | -32.07872 | 141.52411 | 37820 ft | 459 kts | 334° |
| 2026-05-05 09:20 | -32.02129 | 141.49136 | 37820 ft | 459 kts | 334° |
| 2026-05-05 09:21 | -31.96468 | 141.45570 | 37821 ft | 459 kts | 330° |
| 2026-05-05 09:21 | -31.90904 | 141.41847 | 37821 ft | 459 kts | 330° |
| 2026-05-05 09:22 | -31.85320 | 141.38121 | 37820 ft | 459 kts | 330° |
| 2026-05-05 09:22 | -31.79734 | 141.34398 | 37820 ft | 459 kts | 330° |
| 2026-05-05 09:23 | -31.74169 | 141.30655 | 37820 ft | 459 kts | 330° |
| 2026-05-05 09:23 | -31.68597 | 141.26918 | 37820 ft | 459 kts | 330° |
| 2026-05-05 09:24 | -31.63024 | 141.23195 | 37820 ft | 459 kts | 330° |
| 2026-05-05 09:24 | -31.57460 | 141.19487 | 37820 ft | 459 kts | 330° |
| 2026-05-05 09:25 | -31.51872 | 141.15771 | 37820 ft | 459 kts | 330° |
| 2026-05-05 09:25 | -31.46301 | 141.12073 | 37820 ft | 459 kts | 330° |
| 2026-05-05 09:26 | -31.40764 | 141.08401 | 37820 ft | 459 kts | 330° |
| 2026-05-05 09:26 | -31.35204 | 141.04719 | 37820 ft | 459 kts | 330° |
| 2026-05-05 09:27 | -31.29625 | 141.01030 | 37820 ft | 459 kts | 330° |
| 2026-05-05 09:27 | -31.24082 | 140.97369 | 37820 ft | 459 kts | 330° |
| 2026-05-05 09:28 | -31.18512 | 140.93697 | 37820 ft | 459 kts | 330° |
| 2026-05-05 09:28 | -31.12904 | 140.90004 | 37820 ft | 459 kts | 330° |
| 2026-05-05 09:29 | -31.07372 | 140.86365 | 37820 ft | 459 kts | 330° |
| 2026-05-05 09:29 | -31.01768 | 140.82684 | 37820 ft | 459 kts | 330° |
| 2026-05-05 09:30 | -30.96160 | 140.79005 | 37820 ft | 459 kts | 330° |
| 2026-05-05 09:30 | -30.90565 | 140.75342 | 37820 ft | 459 kts | 330° |
| 2026-05-05 09:31 | -30.84980 | 140.71703 | 37820 ft | 459 kts | 330° |
| 2026-05-05 09:31 | -30.79389 | 140.68068 | 37820 ft | 459 kts | 330° |
| 2026-05-05 09:32 | -30.73793 | 140.64424 | 37820 ft | 459 kts | 330° |
| 2026-05-05 09:32 | -30.68194 | 140.60779 | 37820 ft | 459 kts | 330° |
| 2026-05-05 09:33 | -30.62643 | 140.57167 | 37820 ft | 459 kts | 330° |
| 2026-05-05 09:33 | -30.57059 | 140.53540 | 37820 ft | 459 kts | 330° |
| 2026-05-05 09:34 | -30.51469 | 140.49913 | 37820 ft | 459 kts | 330° |
| 2026-05-05 09:34 | -30.45838 | 140.46263 | 37820 ft | 459 kts | 330° |
| 2026-05-05 09:35 | -30.40247 | 140.42645 | 37820 ft | 459 kts | 330° |
| 2026-05-05 09:35 | -30.31865 | 140.37230 | 37820 ft | 459 kts | 330° |
| 2026-05-05 09:36 | -30.26279 | 140.33621 | 37820 ft | 459 kts | 331° |
| 2026-05-05 09:36 | -30.20696 | 140.29996 | 37820 ft | 459 kts | 331° |
| 2026-05-05 09:37 | -30.15126 | 140.26396 | 37820 ft | 459 kts | 331° |
| 2026-05-05 09:37 | -30.09491 | 140.22769 | 37820 ft | 459 kts | 331° |
| 2026-05-05 09:38 | -30.03874 | 140.19163 | 37820 ft | 459 kts | 331° |
| 2026-05-05 09:38 | -29.98293 | 140.15587 | 37820 ft | 459 kts | 331° |
| 2026-05-05 09:39 | -29.92704 | 140.12010 | 37820 ft | 459 kts | 331° |
| 2026-05-05 09:39 | -29.87090 | 140.08429 | 37820 ft | 459 kts | 331° |
| 2026-05-05 09:40 | -29.81462 | 140.04855 | 37820 ft | 459 kts | 331° |
| 2026-05-05 09:40 | -29.75851 | 140.01286 | 37820 ft | 459 kts | 331° |
| 2026-05-05 09:41 | -29.70251 | 139.97725 | 37820 ft | 459 kts | 331° |
| 2026-05-05 09:41 | -29.64625 | 139.94150 | 37820 ft | 459 kts | 331° |
| 2026-05-05 09:42 | -29.58987 | 139.90570 | 37820 ft | 459 kts | 331° |
| 2026-05-05 09:42 | -29.53405 | 139.87030 | 37820 ft | 459 kts | 331° |
| 2026-05-05 09:43 | -29.47802 | 139.83481 | 37820 ft | 459 kts | 331° |
| 2026-05-05 09:43 | -29.42176 | 139.79921 | 37820 ft | 459 kts | 331° |
| 2026-05-05 09:44 | -29.36625 | 139.76415 | 37820 ft | 459 kts | 331° |
| 2026-05-05 09:44 | -29.31035 | 139.72888 | 37820 ft | 459 kts | 331° |
| 2026-05-05 09:45 | -29.25434 | 139.69357 | 37820 ft | 459 kts | 331° |
| 2026-05-05 09:45 | -29.19823 | 139.65826 | 37820 ft | 459 kts | 331° |
| 2026-05-05 09:46 | -29.14239 | 139.62317 | 37820 ft | 459 kts | 331° |
| 2026-05-05 09:46 | -29.08646 | 139.58806 | 37820 ft | 459 kts | 331° |
| 2026-05-05 09:47 | -29.03009 | 139.55270 | 37820 ft | 459 kts | 331° |
| 2026-05-05 09:47 | -28.97434 | 139.51779 | 37820 ft | 459 kts | 331° |
| 2026-05-05 09:48 | -28.91828 | 139.48273 | 37820 ft | 459 kts | 331° |
| 2026-05-05 09:48 | -28.86194 | 139.44763 | 37820 ft | 459 kts | 331° |
| 2026-05-05 09:49 | -28.80578 | 139.41277 | 37820 ft | 459 kts | 331° |
| 2026-05-05 09:49 | -28.75003 | 139.37811 | 37820 ft | 459 kts | 331° |
| 2026-05-05 09:50 | -28.69358 | 139.34299 | 37820 ft | 459 kts | 331° |
| 2026-05-05 09:50 | -28.63757 | 139.30789 | 37820 ft | 459 kts | 331° |
| 2026-05-05 09:51 | -28.58161 | 139.27296 | 37820 ft | 459 kts | 331° |
| 2026-05-05 09:51 | -28.52547 | 139.23807 | 37820 ft | 459 kts | 332° |
| 2026-05-05 09:52 | -28.46956 | 139.20342 | 37820 ft | 459 kts | 332° |
| 2026-05-05 09:52 | -28.41341 | 139.16869 | 37820 ft | 459 kts | 332° |
| 2026-05-05 09:53 | -28.35713 | 139.13391 | 37820 ft | 459 kts | 332° |
| 2026-05-05 09:53 | -28.30130 | 139.09946 | 37820 ft | 459 kts | 332° |
| 2026-05-05 09:54 | -28.24503 | 139.06477 | 37820 ft | 459 kts | 332° |
| 2026-05-05 09:54 | -28.18885 | 139.03020 | 37820 ft | 459 kts | 332° |
| 2026-05-05 09:55 | -28.13265 | 138.99564 | 37820 ft | 459 kts | 332° |
| 2026-05-05 09:55 | -28.07649 | 138.96115 | 37820 ft | 459 kts | 332° |
| 2026-05-05 09:56 | -28.02020 | 138.92662 | 37820 ft | 459 kts | 332° |
| 2026-05-05 09:56 | -27.96389 | 138.89214 | 37820 ft | 459 kts | 332° |
| 2026-05-05 09:57 | -27.90771 | 138.85776 | 37820 ft | 459 kts | 332° |
| 2026-05-05 09:57 | -27.85122 | 138.82336 | 37820 ft | 459 kts | 332° |
| 2026-05-05 09:58 | -27.79508 | 138.78925 | 37820 ft | 459 kts | 332° |
| 2026-05-05 09:58 | -27.73897 | 138.75510 | 37820 ft | 459 kts | 332° |
| 2026-05-05 09:59 | -27.68265 | 138.72082 | 37820 ft | 459 kts | 332° |
| 2026-05-05 09:59 | -27.62632 | 138.68655 | 37820 ft | 459 kts | 332° |
| 2026-05-05 10:00 | -27.57027 | 138.65251 | 37820 ft | 459 kts | 332° |
| 2026-05-05 10:00 | -27.51331 | 138.61795 | 37820 ft | 459 kts | 332° |
| 2026-05-05 10:01 | -27.45715 | 138.58389 | 37820 ft | 459 kts | 332° |
| 2026-05-05 10:01 | -27.40099 | 138.54990 | 37820 ft | 459 kts | 332° |
| 2026-05-05 10:02 | -27.34457 | 138.51578 | 37820 ft | 459 kts | 332° |
| 2026-05-05 10:02 | -27.28823 | 138.48175 | 37820 ft | 459 kts | 332° |
| 2026-05-05 10:03 | -27.23195 | 138.44778 | 37820 ft | 459 kts | 332° |
| 2026-05-05 10:03 | -27.17546 | 138.41374 | 37820 ft | 459 kts | 332° |
| 2026-05-05 10:04 | -27.11894 | 138.37973 | 37820 ft | 459 kts | 332° |
| 2026-05-05 10:04 | -27.06242 | 138.34573 | 37820 ft | 459 kts | 332° |
| 2026-05-05 10:05 | -27.00607 | 138.31161 | 37820 ft | 459 kts | 332° |
| 2026-05-05 10:05 | -26.95003 | 138.27780 | 37820 ft | 459 kts | 332° |
| 2026-05-05 10:06 | -26.89354 | 138.24388 | 37820 ft | 459 kts | 332° |
| 2026-05-05 10:06 | -26.83719 | 138.21030 | 37820 ft | 459 kts | 332° |
| 2026-05-05 10:07 | -26.78051 | 138.17653 | 37820 ft | 459 kts | 332° |
| 2026-05-05 10:07 | -26.72401 | 138.14284 | 37820 ft | 459 kts | 332° |
| 2026-05-05 10:08 | -26.66732 | 138.10904 | 37820 ft | 459 kts | 332° |
| 2026-05-05 10:08 | -26.61086 | 138.07541 | 37820 ft | 459 kts | 332° |
| 2026-05-05 10:09 | -26.55426 | 138.04173 | 37820 ft | 459 kts | 332° |
| 2026-05-05 10:09 | -26.49785 | 138.00821 | 37820 ft | 459 kts | 332° |
| 2026-05-05 10:10 | -26.44145 | 137.97472 | 37820 ft | 459 kts | 332° |
| 2026-05-05 10:10 | -26.38477 | 137.94110 | 37820 ft | 459 kts | 332° |
| 2026-05-05 10:11 | -26.32827 | 137.90762 | 37820 ft | 459 kts | 332° |
| 2026-05-05 10:11 | -26.27192 | 137.87428 | 37820 ft | 459 kts | 332° |
| 2026-05-05 10:12 | -26.21527 | 137.84079 | 37820 ft | 459 kts | 332° |
| 2026-05-05 10:12 | -26.15870 | 137.80739 | 37820 ft | 459 kts | 332° |
| 2026-05-05 10:13 | -26.10225 | 137.77409 | 37820 ft | 459 kts | 332° |
| 2026-05-05 10:13 | -26.04573 | 137.74080 | 37820 ft | 459 kts | 332° |
| 2026-05-05 10:14 | -25.98905 | 137.70744 | 37820 ft | 459 kts | 332° |
| 2026-05-05 10:14 | -25.93251 | 137.67419 | 37820 ft | 459 kts | 332° |
| 2026-05-05 10:15 | -25.87591 | 137.64101 | 37820 ft | 459 kts | 332° |
| 2026-05-05 10:15 | -25.81919 | 137.60792 | 37820 ft | 459 kts | 332° |
| 2026-05-05 10:16 | -25.76254 | 137.57481 | 37820 ft | 459 kts | 332° |
| 2026-05-05 10:16 | -25.70602 | 137.54178 | 37820 ft | 459 kts | 332° |
| 2026-05-05 10:17 | -25.64935 | 137.50865 | 37820 ft | 459 kts | 332° |
| 2026-05-05 10:17 | -25.59290 | 137.47568 | 37820 ft | 459 kts | 332° |
| 2026-05-05 10:18 | -25.53640 | 137.44272 | 37820 ft | 459 kts | 332° |
| 2026-05-05 10:18 | -25.47980 | 137.40974 | 37820 ft | 459 kts | 332° |
| 2026-05-05 10:19 | -25.42288 | 137.37660 | 37820 ft | 459 kts | 332° |
| 2026-05-05 10:19 | -25.36642 | 137.34375 | 37820 ft | 459 kts | 332° |
| 2026-05-05 10:20 | -25.32861 | 137.32159 | 37820 ft | 459 kts | 332° |